Time,TemperatureF,DewpointF,PressureIn,WindDirection,WindDirectionDegrees,WindSpeedMPH,WindSpeedGustMPH,Humidity,HourlyPrecipIn,Conditions,Clouds,dailyrainin,SoftwareType,DateUTC
2013-12-30 00:02:00,41.0,-99.9,-100.00,NW,311,11.0,15.0,-999,-99.99,,,1.42,,2013-12-30 05:02:00,
2013-12-30 00:13:00,41.0,-99.9,-100.00,NW,311,11.0,15.0,-999,-99.99,,,1.42,,2013-12-30 05:13:00,
2013-12-30 00:43:00,42.0,-99.9,-100.00,West,280,8.0,12.0,-999,-99.99,,,1.42,,2013-12-30 05:43:00,
2013-12-30 00:53:00,42.0,-99.9,-100.00,West,280,8.0,12.0,-999,-99.99,,,1.42,,2013-12-30 05:53:00,
2013-12-30 01:02:00,42.0,-99.9,-100.00,West,280,8.0,12.0,-999,-99.99,,,1.42,,2013-12-30 06:02:00,
2013-12-30 01:12:00,42.0,-99.9,-100.00,West,280,8.0,12.0,-999,-99.99,,,1.42,,2013-12-30 06:12:00,
2013-12-30 01:53:00,40.0,-99.9,-100.00,NW,304,9.0,15.0,-999,-99.99,,,1.42,,2013-12-30 06:53:00,
2013-12-30 02:02:00,40.0,-99.9,-100.00,NW,304,9.0,15.0,-999,-99.99,,,1.42,,2013-12-30 07:02:00,
2013-12-30 02:11:00,40.0,-99.9,-100.00,NW,304,9.0,15.0,-999,-99.99,,,1.42,,2013-12-30 07:11:00,
2013-12-30 02:42:00,39.0,-99.9,-100.00,West,276,11.0,14.0,-999,-99.99,,,1.42,,2013-12-30 07:42:00,
2013-12-30 02:52:00,39.0,-99.9,-100.00,West,276,11.0,14.0,-999,-99.99,,,1.42,,2013-12-30 07:52:00,
2013-12-30 03:02:00,39.0,-99.9,-100.00,West,276,11.0,14.0,-999,-99.99,,,1.42,,2013-12-30 08:02:00,
2013-12-30 03:11:00,39.0,-99.9,-100.00,West,276,11.0,14.0,-999,-99.99,,,1.42,,2013-12-30 08:11:00,
2013-12-30 03:42:00,39.0,-99.9,-100.00,WNW,297,7.0,12.0,-999,-99.99,,,1.42,,2013-12-30 08:42:00,
2013-12-30 03:52:00,39.0,-99.9,-100.00,WNW,297,7.0,12.0,-999,-99.99,,,1.42,,2013-12-30 08:52:00,
2013-12-30 04:03:00,39.0,-99.9,-100.00,WNW,297,7.0,12.0,-999,-99.99,,,1.42,,2013-12-30 09:03:00,
2013-12-30 04:11:00,39.0,-99.9,-100.00,WNW,297,7.0,12.0,-999,-99.99,,,1.42,,2013-12-30 09:11:00,
2013-12-30 04:43:00,38.0,-99.9,-100.00,WNW,293,4.0,10.0,-999,-99.99,,,1.42,,2013-12-30 09:43:00,
2013-12-30 04:53:00,38.0,-99.9,-100.00,WNW,293,4.0,10.0,-999,-99.99,,,1.42,,2013-12-30 09:53:00,
2013-12-30 05:03:00,38.0,-99.9,-100.00,WNW,293,4.0,10.0,-999,-99.99,,,1.42,,2013-12-30 10:03:00,
2013-12-30 05:12:00,38.0,-99.9,-100.00,WNW,293,4.0,10.0,-999,-99.99,,,1.42,,2013-12-30 10:12:00,
2013-12-30 05:53:00,38.0,-99.9,-100.00,WNW,286,5.0,8.0,-999,-99.99,,,1.41,,2013-12-30 10:53:00,
2013-12-30 06:02:00,38.0,-99.9,-100.00,WNW,286,5.0,8.0,-999,-99.99,,,1.41,,2013-12-30 11:02:00,
2013-12-30 06:12:00,38.0,-99.9,-100.00,WNW,286,5.0,8.0,-999,-99.99,,,1.41,,2013-12-30 11:12:00,
2013-12-30 06:43:00,36.0,-99.9,-100.00,SSW,200,4.0,5.0,-999,-99.99,,,1.41,,2013-12-30 11:43:00,
2013-12-30 06:53:00,36.0,-99.9,-100.00,SSW,200,4.0,5.0,-999,-99.99,,,1.41,,2013-12-30 11:53:00,
2013-12-30 07:02:00,36.0,-99.9,-100.00,SSW,200,4.0,5.0,-999,-99.99,,,1.41,,2013-12-30 12:02:00,
2013-12-30 07:12:00,36.0,-99.9,-100.00,SSW,200,4.0,5.0,-999,-99.99,,,1.41,,2013-12-30 12:12:00,
2013-12-30 07:42:00,38.0,-99.9,-100.00,WSW,249,7.0,8.0,-999,-99.99,,,1.41,,2013-12-30 12:42:00,
2013-12-30 07:52:00,38.0,-99.9,-100.00,WSW,249,7.0,8.0,-999,-99.99,,,1.41,,2013-12-30 12:52:00,
2013-12-30 08:01:00,38.0,-99.9,-100.00,WSW,249,7.0,8.0,-999,-99.99,,,1.41,,2013-12-30 13:01:00,
2013-12-30 08:12:00,38.0,-99.9,-100.00,WSW,249,7.0,8.0,-999,-99.99,,,1.41,,2013-12-30 13:12:00,
2013-12-30 08:53:00,42.0,-99.9,-100.00,WSW,254,10.0,12.0,-999,0.00,,,1.42,,2013-12-30 13:53:00,
2013-12-30 09:02:00,42.0,-99.9,-100.00,WSW,254,10.0,12.0,-999,0.00,,,1.42,,2013-12-30 14:02:00,
2013-12-30 09:12:00,42.0,-99.9,-100.00,WSW,254,10.0,12.0,-999,0.00,,,1.42,,2013-12-30 14:12:00,
2013-12-30 09:42:00,42.0,-99.9,-100.00,West,262,10.0,12.0,-999,-99.99,,,1.41,,2013-12-30 14:42:00,
2013-12-30 09:52:00,42.0,-99.9,-100.00,West,262,10.0,12.0,-999,-99.99,,,1.41,,2013-12-30 14:52:00,
2013-12-30 10:02:00,42.0,-99.9,-100.00,West,262,10.0,12.0,-999,-99.99,,,1.41,,2013-12-30 15:02:00,
2013-12-30 10:11:00,42.0,-99.9,-100.00,West,262,10.0,12.0,-999,-99.99,,,1.41,,2013-12-30 15:11:00,
2013-12-30 10:54:00,43.0,-99.9,-100.00,West,267,8.0,13.0,-999,0.00,,,1.41,,2013-12-30 15:54:00,
2013-12-30 11:03:00,43.0,-99.9,-100.00,West,267,8.0,13.0,-999,0.00,,,1.41,,2013-12-30 16:03:00,
2013-12-30 11:13:00,43.0,-99.9,-100.00,West,267,8.0,13.0,-999,0.00,,,1.41,,2013-12-30 16:13:00,
2013-12-30 11:43:00,44.0,-99.9,-100.00,West,277,12.0,15.0,-999,-99.99,,,1.41,,2013-12-30 16:43:00,
2013-12-30 11:53:00,44.0,-99.9,-100.00,West,277,12.0,15.0,-999,-99.99,,,1.41,,2013-12-30 16:53:00,
2013-12-30 12:02:00,44.0,-99.9,-100.00,West,277,12.0,15.0,-999,-99.99,,,1.41,,2013-12-30 17:02:00,
2013-12-30 12:12:00,44.0,-99.9,-100.00,West,277,12.0,15.0,-999,-99.99,,,1.41,,2013-12-30 17:12:00,
2013-12-30 12:43:00,43.0,-99.9,-100.00,WNW,283,13.0,17.0,-999,-99.99,,,1.40,,2013-12-30 17:43:00,
2013-12-30 12:52:00,43.0,-99.9,-100.00,WNW,283,13.0,17.0,-999,-99.99,,,1.40,,2013-12-30 17:52:00,
2013-12-30 13:02:00,43.0,-99.9,-100.00,WNW,283,13.0,17.0,-999,-99.99,,,1.40,,2013-12-30 18:02:00,
2013-12-30 13:12:00,43.0,-99.9,-100.00,WNW,283,13.0,17.0,-999,-99.99,,,1.40,,2013-12-30 18:12:00,
2013-12-30 13:43:00,41.0,-99.9,-100.00,NNW,334,9.0,17.0,-999,0.00,,,1.32,,2013-12-30 18:43:00,
2013-12-30 13:52:00,41.0,-99.9,-100.00,NNW,334,9.0,17.0,-999,0.00,,,1.32,,2013-12-30 18:52:00,
2013-12-30 14:02:00,41.0,-99.9,-100.00,NNW,334,9.0,17.0,-999,0.00,,,1.32,,2013-12-30 19:02:00,
2013-12-30 14:12:00,41.0,-99.9,-100.00,NNW,334,9.0,17.0,-999,0.00,,,1.32,,2013-12-30 19:12:00,
2013-12-30 14:42:00,39.0,-99.9,-100.00,NNW,338,8.0,12.0,-999,0.00,,,1.25,,2013-12-30 19:42:00,
2013-12-30 14:52:00,39.0,-99.9,-100.00,NNW,338,8.0,12.0,-999,0.00,,,1.25,,2013-12-30 19:52:00,
2013-12-30 15:02:00,39.0,-99.9,-100.00,NNW,338,8.0,12.0,-999,0.00,,,1.25,,2013-12-30 20:02:00,
2013-12-30 15:12:00,39.0,-99.9,-100.00,NNW,338,8.0,12.0,-999,0.00,,,1.25,,2013-12-30 20:12:00,
2013-12-30 15:42:00,36.0,-99.9,-100.00,NW,325,11.0,18.0,-999,-99.99,,,1.10,,2013-12-30 20:42:00,
2013-12-30 15:52:00,36.0,-99.9,-100.00,NW,325,11.0,18.0,-999,-99.99,,,1.10,,2013-12-30 20:52:00,
2013-12-30 16:02:00,36.0,-99.9,-100.00,NW,325,11.0,18.0,-999,-99.99,,,1.10,,2013-12-30 21:02:00,
2013-12-30 16:12:00,36.0,-99.9,-100.00,NW,325,11.0,18.0,-999,-99.99,,,1.10,,2013-12-30 21:12:00,
2013-12-30 16:44:00,35.0,-99.9,-100.00,NNW,341,10.0,17.0,-999,-99.99,,,0.84,,2013-12-30 21:44:00,
2013-12-30 16:54:00,35.0,-99.9,-100.00,NNW,341,10.0,17.0,-999,-99.99,,,0.84,,2013-12-30 21:54:00,
2013-12-30 17:03:00,35.0,-99.9,-100.00,NNW,341,10.0,17.0,-999,-99.99,,,0.84,,2013-12-30 22:03:00,
2013-12-30 17:13:00,35.0,-99.9,-100.00,NNW,341,10.0,17.0,-999,-99.99,,,0.84,,2013-12-30 22:13:00,
2013-12-30 17:43:00,33.0,-99.9,-100.00,North,356,7.0,13.0,-999,-99.99,,,0.39,,2013-12-30 22:43:00,
2013-12-30 17:53:00,33.0,-99.9,-100.00,North,356,7.0,13.0,-999,-99.99,,,0.39,,2013-12-30 22:53:00,
2013-12-30 18:02:00,33.0,-99.9,-100.00,North,356,7.0,13.0,-999,-99.99,,,0.39,,2013-12-30 23:02:00,
2013-12-30 18:12:00,33.0,-99.9,-100.00,North,356,7.0,13.0,-999,-99.99,,,0.39,,2013-12-30 23:12:00,
2013-12-30 18:42:00,31.0,-99.9,-100.00,North,359,7.0,10.0,-999,-99.99,,,0.03,,2013-12-30 23:42:00,
2013-12-30 18:53:00,31.0,-99.9,-100.00,North,359,7.0,10.0,-999,-99.99,,,0.03,,2013-12-30 23:53:00,
2013-12-30 19:02:00,31.0,-99.9,-100.00,North,359,7.0,10.0,-999,-99.99,,,0.03,,2013-12-31 00:02:00,
2013-12-30 19:12:00,31.0,-99.9,-100.00,North,359,7.0,10.0,-999,-99.99,,,0.03,,2013-12-31 00:12:00,
2013-12-30 19:42:00,29.0,-99.9,-100.00,North,350,9.0,14.0,-999,-99.99,,,-99.99,,2013-12-31 00:42:00,
2013-12-30 19:52:00,29.0,-99.9,-100.00,North,350,9.0,14.0,-999,-99.99,,,-99.99,,2013-12-31 00:52:00,
2013-12-30 20:02:00,29.0,-99.9,-100.00,North,350,9.0,14.0,-999,-99.99,,,-99.99,,2013-12-31 01:02:00,
2013-12-30 20:12:00,29.0,-99.9,-100.00,North,350,9.0,14.0,-999,-99.99,,,-99.99,,2013-12-31 01:12:00,
2013-12-30 20:42:00,27.0,-99.9,-100.00,NNW,348,10.0,16.0,-999,-99.99,,,-99.99,,2013-12-31 01:42:00,
2013-12-30 20:52:00,27.0,-99.9,-100.00,NNW,348,10.0,16.0,-999,-99.99,,,-99.99,,2013-12-31 01:52:00,
2013-12-30 21:02:00,27.0,-99.9,-100.00,NNW,348,10.0,16.0,-999,-99.99,,,-99.99,,2013-12-31 02:02:00,
2013-12-30 21:12:00,27.0,-99.9,-100.00,NNW,348,10.0,16.0,-999,-99.99,,,-99.99,,2013-12-31 02:12:00,
2013-12-30 21:53:00,25.0,-99.9,-100.00,NNW,332,11.0,15.0,-999,-99.99,,,-99.99,,2013-12-31 02:53:00,
2013-12-30 22:02:00,25.0,-99.9,-100.00,NNW,332,11.0,15.0,-999,-99.99,,,-99.99,,2013-12-31 03:02:00,
2013-12-30 22:12:00,25.0,-99.9,-100.00,NNW,332,11.0,15.0,-999,-99.99,,,-99.99,,2013-12-31 03:12:00,
2013-12-30 22:43:00,23.0,-99.9,-100.00,NNW,335,7.0,14.0,-999,-99.99,,,-99.99,,2013-12-31 03:43:00,
2013-12-30 22:54:00,23.0,-99.9,-100.00,NNW,335,7.0,14.0,-999,-99.99,,,-99.99,,2013-12-31 03:54:00,
2013-12-30 23:03:00,23.0,-99.9,-100.00,NNW,335,7.0,14.0,-999,-99.99,,,-99.99,,2013-12-31 04:03:00,
2013-12-30 23:13:00,23.0,-99.9,-100.00,NNW,335,7.0,14.0,-999,-99.99,,,-99.99,,2013-12-31 04:13:00,
2013-12-30 23:43:00,22.0,-99.9,-100.00,NNW,336,9.0,13.0,-999,-99.99,,,-99.99,,2013-12-31 04:43:00,
2013-12-30 23:53:00,22.0,-99.9,-100.00,NNW,336,9.0,13.0,-999,-99.99,,,-99.99,,2013-12-31 04:53:00,